Search for airport 
image banner adimage banner adimage banner ad
image banner ad

9N1 - Vansant

Located in Erwinna, United States

ICAO - 9N1, IATA -

Data provided by Airmate  

General information

Coordinates: N40°29'3" W75°5'59"
Elevation is 390 feet MSL.
Magnetic variation is -12° East
View others Airports in Pennsylvania

Operational data

Special qualification required
Current time UTC:
Current local time:
Weather at : KDYL - Doylestown ( 17 km )
METAR: KDYL 091354Z AUTO 19003KT 10SM CLR 11/04 A3008 RMK AO2 SLP188 T01110044
View NOTAMs / SUP AIP / TFR affecting this airport [VIEW]
Communications frequencies: [VIEW]

Runways:

RWY identifierQFULength (ft)Width (ft)SurfaceLDA (ft)
073058120GRASS
253058120GRASS

Airport contact information

Address: Erwinna United States

Other aviation service providers

Flight schools

The Bird Of Paradise At Van Sant

The Bird Of Paradise At Van Sant
baranddannie@yahoo.com+1(610)847-1119

Freedom Wings International

Freedom Wings International

Satellite view of 9N1